Time;durP1;ratioP1;P1;durP2;ratioP2;P2;SDS_P1;SDS_P2;PMS_P1;PMS_P2;Temp;Humidity;BMP_temperature;BMP_pressure;BME280_temperature;BME280_humidity;BME280_pressure;Samples;Min_cycle;Max_cycle;Signal;HPM_P1;HPM_P2
2023/06/26 00:01:31;;;;;;;12.47;6.83;;;;;;;17.41;91.96;100239.50;1454811;90;22410;-83
2023/06/26 00:03:58;;;;;;;8.60;6.87;;;;;;;17.41;92.30;100231.47;1452255;90;21405;-83
2023/06/26 00:06:25;;;;;;;9.43;6.77;;;;;;;17.41;93.27;100232.81;1384169;89;21405;-83
2023/06/26 00:08:53;;;;;;;9.17;6.60;;;;;;;17.39;93.32;100234.84;1378363;90;21412;-82
2023/06/26 00:11:21;;;;;;;9.30;7.30;;;;;;;17.37;92.95;100234.20;1383466;90;22184;-82
2023/06/26 00:13:48;;;;;;;10.70;6.60;;;;;;;17.39;93.01;100236.70;1471279;90;22306;-82
2023/06/26 00:16:14;;;;;;;10.10;6.37;;;;;;;17.41;93.20;100230.66;1452723;90;21397;-82
2023/06/26 00:18:41;;;;;;;11.50;6.40;;;;;;;17.44;93.37;100231.08;1444850;90;21608;-82
2023/06/26 00:21:07;;;;;;;7.13;6.43;;;;;;;17.46;94.00;100234.36;1447017;90;22388;-82
2023/06/26 00:23:36;;;;;;;13.33;7.27;;;;;;;17.48;94.26;100230.16;1451136;90;21626;-82
2023/06/26 00:26:01;;;;;;;10.20;7.80;;;;;;;17.48;93.98;100227.48;1528979;89;21435;-83
2023/06/26 00:28:27;;;;;;;10.57;6.43;;;;;;;17.47;93.93;100228.00;1453398;90;21659;-81
2023/06/26 00:30:53;;;;;;;8.37;6.40;;;;;;;17.46;93.72;100222.32;1450052;89;21797;-82
2023/06/26 00:33:19;;;;;;;14.07;6.67;;;;;;;17.43;93.99;100229.41;1454493;89;21434;-82
2023/06/26 00:35:45;;;;;;;15.30;6.67;;;;;;;17.40;94.38;100212.41;1455596;90;21545;-83
2023/06/26 00:38:12;;;;;;;9.83;7.40;;;;;;;17.39;94.20;100218.80;1443124;90;21554;-82
2023/06/26 00:40:38;;;;;;;12.30;5.83;;;;;;;17.36;94.43;100219.19;1450728;90;21545;-82
2023/06/26 00:43:04;;;;;;;9.43;6.57;;;;;;;17.32;94.54;100214.75;1452299;90;21530;-82
2023/06/26 00:45:30;;;;;;;9.37;6.10;;;;;;;17.31;94.62;100216.28;1445879;90;22403;-82
2023/06/26 00:47:56;;;;;;;7.50;6.30;;;;;;;17.30;95.56;100214.63;1456334;90;21545;-81
2023/06/26 00:50:24;;;;;;;16.10;7.20;;;;;;;17.25;95.57;100213.05;1452974;90;21479;-81
2023/06/26 00:52:50;;;;;;;7.53;6.60;;;;;;;17.16;96.39;100213.72;1449520;90;22197;-81
2023/06/26 00:55:16;;;;;;;12.70;7.27;;;;;;;17.06;97.08;100211.41;1446041;89;21426;-82
2023/06/26 00:57:45;;;;;;;9.87;7.20;;;;;;;16.96;98.60;100210.91;1456783;90;22638;-82
2023/06/26 01:00:12;;;;;;;8.70;6.43;;;;;;;16.90;98.08;100211.17;1444297;89;21478;-81
2023/06/26 01:02:39;;;;;;;13.90;6.57;;;;;;;16.88;98.84;100208.38;1450466;89;21514;-80
2023/06/26 01:05:07;;;;;;;9.27;6.57;;;;;;;16.86;98.80;100207.25;1449296;90;21412;-81
2023/06/26 01:07:36;;;;;;;8.47;6.27;;;;;;;16.89;98.88;100210.05;1451830;89;21523;-82
2023/06/26 01:10:05;;;;;;;8.53;6.77;;;;;;;16.90;99.21;100210.34;1449709;89;21628;-80
2023/06/26 01:12:33;;;;;;;11.17;6.90;;;;;;;16.90;99.85;100209.02;1450007;89;21605;-80
2023/06/26 01:15:00;;;;;;;13.23;5.53;;;;;;;16.90;100.00;100210.34;1444266;90;21521;-80
2023/06/26 01:17:31;;;;;;;12.43;6.87;;;;;;;16.87;100.00;100202.20;1452667;90;21390;-81
2023/06/26 01:20:00;;;;;;;8.20;6.00;;;;;;;16.90;100.00;100210.34;1449416;90;21604;-79
2023/06/26 01:22:45;;;;;;;9.47;6.20;;;;;;;16.89;100.00;100206.86;1453537;89;21545;-80
2023/06/26 01:25:38;;;;;;;11.57;6.83;;;;;;;16.87;100.00;100204.88;1449407;90;22460;-80
2023/06/26 01:28:07;;;;;;;8.70;6.03;;;;;;;16.87;99.81;100208.89;1455451;89;21508;-80
2023/06/26 01:30:37;;;;;;;11.67;6.27;;;;;;;16.89;99.90;100203.36;1448074;89;21427;-81
2023/06/26 01:33:04;;;;;;;10.48;6.65;;;;;;;16.89;99.81;100208.19;1472429;89;21537;-81
2023/06/26 01:35:30;;;;;;;8.90;6.87;;;;;;;16.90;99.84;100206.34;1467950;88;21507;-79
2023/06/26 01:38:18;;;;;;;11.00;7.50;;;;;;;16.88;99.90;100205.70;1462309;88;21389;-81
2023/06/26 01:40:45;;;;;;;11.83;7.27;;;;;;;16.83;100.00;100206.78;1445603;90;21478;-81
2023/06/26 01:43:31;;;;;;;8.67;6.17;;;;;;;16.77;99.93;100203.55;1458693;88;21403;-81
2023/06/26 01:46:08;;;;;;;8.63;6.90;;;;;;;16.72;100.00;100200.63;1464345;88;21478;-81
2023/06/26 01:48:54;;;;;;;9.57;6.20;;;;;;;16.70;100.00;100200.28;1470031;89;21559;-82
2023/06/26 01:51:23;;;;;;;11.37;7.67;;;;;;;16.69;100.00;100199.98;1467914;88;21484;-81
2023/06/26 01:53:53;;;;;;;12.53;7.27;;;;;;;16.70;100.00;100194.13;1460428;89;22146;-82
2023/06/26 01:56:22;;;;;;;12.65;6.33;;;;;;;16.73;100.00;100199.59;1445449;89;21544;-81
2023/06/26 01:58:49;;;;;;;14.83;6.93;;;;;;;16.76;100.00;100196.53;1459040;89;21463;-81
2023/06/26 02:01:16;;;;;;;11.20;6.83;;;;;;;16.79;100.00;100194.84;1457870;89;21492;-80
2023/06/26 02:03:42;;;;;;;12.03;7.20;;;;;;;16.80;100.00;100197.81;1462987;89;21522;-80
2023/06/26 02:06:08;;;;;;;10.80;6.47;;;;;;;16.81;100.00;100194.14;1460170;89;21441;-80
2023/06/26 02:08:36;;;;;;;10.50;7.13;;;;;;;16.83;100.00;100196.95;1456252;88;21655;-81
2023/06/26 02:11:02;;;;;;;13.57;5.80;;;;;;;16.85;100.00;100186.86;1465550;89;21515;-80
2023/06/26 02:13:28;;;;;;;10.67;6.43;;;;;;;16.86;100.00;100191.69;1457596;88;22269;-81
2023/06/26 02:15:55;;;;;;;8.27;6.43;;;;;;;16.86;100.00;100193.03;1466008;89;21592;-80
2023/06/26 02:18:22;;;;;;;10.23;5.90;;;;;;;16.84;100.00;100189.75;1452574;89;21426;-80
2023/06/26 02:20:49;;;;;;;8.50;5.97;;;;;;;16.83;100.00;100189.41;1465302;88;21470;-80
2023/06/26 02:23:15;;;;;;;10.70;6.23;;;;;;;16.81;100.00;100194.14;1453796;89;21618;-80
2023/06/26 02:25:41;;;;;;;13.93;7.30;;;;;;;16.79;100.00;100192.98;1452954;89;22882;-81
2023/06/26 02:28:07;;;;;;;14.83;6.57;;;;;;;16.78;100.00;100194.53;1464674;88;21441;-83
2023/06/26 02:30:33;;;;;;;10.30;6.23;;;;;;;16.78;100.00;100192.69;1467445;89;21478;-83
2023/06/26 02:33:00;;;;;;;13.93;6.73;;;;;;;16.82;100.00;100197.13;1451962;89;22372;-82
2023/06/26 02:35:26;;;;;;;9.63;6.63;;;;;;;16.83;100.00;100194.75;1455576;89;22500;-81
2023/06/26 02:37:52;;;;;;;10.87;6.90;;;;;;;16.85;100.00;100198.07;1451328;90;21546;-81
2023/06/26 02:40:18;;;;;;;6.70;5.80;;;;;;;16.86;100.00;100193.88;1453623;89;21420;-81
2023/06/26 02:42:45;;;;;;;12.27;7.10;;;;;;;16.87;100.00;100193.36;1446546;90;21404;-81
2023/06/26 02:45:11;;;;;;;10.87;7.07;;;;;;;16.82;100.00;100195.27;1452234;90;21442;-81
2023/06/26 02:47:39;;;;;;;12.07;7.10;;;;;;;16.79;100.00;100199.67;1453048;90;21457;-81
2023/06/26 02:50:08;;;;;;;10.17;7.30;;;;;;;16.78;100.00;100202.03;1448538;90;21522;-82
2023/06/26 02:52:35;;;;;;;11.90;7.00;;;;;;;16.77;100.00;100206.22;1454390;89;21597;-81
2023/06/26 02:55:01;;;;;;;15.67;6.47;;;;;;;16.75;100.00;100202.39;1453626;90;22359;-81
2023/06/26 02:57:27;;;;;;;10.60;6.63;;;;;;;16.72;100.00;100198.77;1455455;90;21433;-81
2023/06/26 02:59:53;;;;;;;9.67;6.53;;;;;;;16.69;100.00;100199.98;1453900;89;21557;-82
2023/06/26 03:02:19;;;;;;;11.47;6.50;;;;;;;16.68;100.00;100200.16;1451032;90;21493;-82
2023/06/26 03:04:45;;;;;;;8.87;7.20;;;;;;;16.66;100.00;100200.88;1457240;89;21552;-82
2023/06/26 03:07:12;;;;;;;10.40;7.33;;;;;;;16.64;100.00;100205.07;1456869;90;21442;-81
2023/06/26 03:09:38;;;;;;;6.93;6.03;;;;;;;16.62;100.00;100202.27;1458287;90;21531;-82
2023/06/26 03:12:05;;;;;;;10.63;6.80;;;;;;;16.63;100.00;100202.09;1457656;89;21464;-82
2023/06/26 03:14:31;;;;;;;13.60;6.20;;;;;;;16.63;100.00;100204.77;1458853;89;21982;-82
2023/06/26 03:16:59;;;;;;;12.50;6.63;;;;;;;16.64;100.00;100198.91;1453276;90;21434;-81
2023/06/26 03:19:25;;;;;;;9.83;6.40;;;;;;;16.62;100.00;100208.44;1453832;90;21589;-82
2023/06/26 03:21:51;;;;;;;14.33;7.93;;;;;;;16.62;100.00;100198.27;1449334;90;22351;-81
2023/06/26 03:24:17;;;;;;;11.90;7.60;;;;;;;16.59;100.00;100200.80;1451902;90;21368;-81
2023/06/26 03:26:44;;;;;;;17.30;7.50;;;;;;;16.58;100.00;100205.02;1450841;90;21567;-81
2023/06/26 03:29:10;;;;;;;13.17;7.33;;;;;;;16.57;100.00;100202.87;1455588;89;22521;-81
2023/06/26 03:31:37;;;;;;;15.47;8.07;;;;;;;16.56;100.00;100204.38;1446892;89;21434;-82
2023/06/26 03:34:03;;;;;;;8.03;6.20;;;;;;;16.52;100.00;100200.45;1454951;89;21412;-81
2023/06/26 03:36:29;;;;;;;9.00;6.20;;;;;;;16.52;100.00;100203.94;1461660;89;21633;-81
2023/06/26 03:38:56;;;;;;;8.60;6.23;;;;;;;16.52;100.00;100202.61;1443147;89;21500;-81
2023/06/26 03:41:24;;;;;;;12.67;6.90;;;;;;;16.52;100.00;100207.95;1436208;89;21470;-82
2023/06/26 03:43:50;;;;;;;7.30;6.53;;;;;;;16.49;100.00;100208.34;1454733;88;21440;-82
2023/06/26 03:46:16;;;;;;;10.83;6.20;;;;;;;16.47;100.00;100207.69;1455321;89;22270;-81
2023/06/26 03:48:42;;;;;;;25.73;8.23;;;;;;;16.46;100.00;100216.73;1462232;89;21641;-82
2023/06/26 03:51:09;;;;;;;9.27;6.70;;;;;;;16.45;100.00;100215.88;1437371;89;21478;-81
2023/06/26 03:53:35;;;;;;;10.57;7.30;;;;;;;16.45;100.00;100209.72;1455334;89;22342;-88
2023/06/26 03:56:01;;;;;;;12.13;6.83;;;;;;;16.47;100.00;100217.05;1462817;89;21532;-89
2023/06/26 03:58:27;;;;;;;23.40;7.50;;;;;;;16.51;100.00;100216.14;1461519;88;21514;-90
2023/06/26 04:00:53;;;;;;;12.17;8.00;;;;;;;16.51;100.00;100210.28;1457656;88;21464;-90
2023/06/26 04:03:19;;;;;;;12.60;7.70;;;;;;;16.56;100.00;100215.06;1456364;89;21441;-89
2023/06/26 04:05:46;;;;;;;11.63;7.00;;;;;;;16.58;100.00;100216.53;1461009;89;21537;-89
2023/06/26 04:08:13;;;;;;;11.63;6.63;;;;;;;16.61;100.00;100214.81;1449865;89;21640;-90
2023/06/26 04:10:39;;;;;;;11.47;7.53;;;;;;;16.66;100.00;100215.06;1458572;89;21508;-85
2023/06/26 04:13:05;;;;;;;16.20;7.60;;;;;;;16.73;100.00;100214.30;1456880;89;21500;-84
2023/06/26 04:15:31;;;;;;;10.93;7.20;;;;;;;16.79;100.00;100218.38;1461926;89;21746;-88
2023/06/26 04:17:57;;;;;;;10.13;7.30;;;;;;;16.87;100.00;100212.08;1455365;89;21456;-87
2023/06/26 04:20:24;;;;;;;8.73;6.47;;;;;;;16.97;100.00;100208.53;1453489;89;22344;-87
2023/06/26 04:22:50;;;;;;;13.90;7.60;;;;;;;17.08;100.00;100216.02;1445310;89;21434;-86
2023/06/26 04:25:16;;;;;;;8.17;6.43;;;;;;;17.21;100.00;100215.81;1454624;89;21508;-85
2023/06/26 04:27:42;;;;;;;15.47;8.73;;;;;;;17.35;100.00;100216.22;1456891;88;22344;-87
2023/06/26 04:30:12;;;;;;;11.53;7.53;;;;;;;17.50;100.00;100209.40;1461360;89;21433;-89
2023/06/26 04:32:38;;;;;;;12.82;8.40;;;;;;;17.63;100.00;100213.97;1453649;88;22411;-88
2023/06/26 04:35:05;;;;;;;14.33;7.83;;;;;;;17.74;100.00;100214.75;1446399;89;22572;-86
2023/06/26 04:37:31;;;;;;;14.27;9.30;;;;;;;17.86;100.00;100213.17;1460086;89;21441;-88
2023/06/26 04:39:57;;;;;;;13.20;7.63;;;;;;;17.97;100.00;100215.80;1467126;88;21515;-84
2023/06/26 04:42:23;;;;;;;23.57;8.30;;;;;;;18.08;100.00;100217.06;1467873;88;21529;-86
2023/06/26 04:44:50;;;;;;;12.97;8.03;;;;;;;18.22;100.00;100218.75;1462946;88;22518;-85
2023/06/26 04:47:16;;;;;;;13.23;8.90;;;;;;;18.38;100.00;100217.53;1450440;89;21603;-85
2023/06/26 04:49:45;;;;;;;11.05;7.95;;;;;;;18.56;100.00;100220.95;1450508;89;21448;-86
2023/06/26 04:52:13;;;;;;;14.47;7.45;;;;;;;18.69;100.00;100214.27;1454477;89;21478;-86
2023/06/26 04:54:39;;;;;;;10.68;8.30;;;;;;;18.82;100.00;100219.67;1463967;88;21508;-85
2023/06/26 04:57:05;;;;;;;10.13;7.53;;;;;;;18.98;100.00;100218.94;1459953;89;22784;-86
2023/06/26 04:59:32;;;;;;;10.05;7.87;;;;;;;19.09;100.00;100212.94;1463834;88;21411;-86
2023/06/26 05:01:58;;;;;;;10.38;8.28;;;;;;;19.23;100.00;100216.44;1463962;89;21396;-86
2023/06/26 05:04:24;;;;;;;8.20;6.95;;;;;;;19.36;100.00;100213.21;1474201;89;21477;-87
2023/06/26 05:06:52;;;;;;;12.13;8.50;;;;;;;19.51;99.74;100216.98;1462194;88;21508;-85
2023/06/26 05:09:18;;;;;;;8.80;7.85;;;;;;;19.64;98.25;100220.13;1463631;89;21551;-86
2023/06/26 05:15:46;;;;;;;11.50;8.38;;;;;;;19.91;96.43;100216.02;1462327;88;22365;-86
2023/06/26 05:18:12;;;;;;;10.38;8.10;;;;;;;20.02;95.58;100220.22;1457415;89;21606;-85
2023/06/26 05:20:39;;;;;;;9.25;7.65;;;;;;;19.98;93.70;100222.20;1457968;89;21507;-85
2023/06/26 05:23:06;;;;;;;11.30;8.18;;;;;;;19.98;93.66;100222.20;1458463;89;21485;-87
2023/06/26 05:25:34;;;;;;;10.78;8.28;;;;;;;20.04;93.02;100222.67;1462048;89;21418;-86
2023/06/26 05:28:01;;;;;;;10.82;8.20;;;;;;;20.12;92.86;100226.47;1462222;89;21418;-87
2023/06/26 05:30:28;;;;;;;14.30;8.50;;;;;;;20.22;92.89;100223.30;1459776;89;21537;-85
2023/06/26 05:32:55;;;;;;;12.25;8.83;;;;;;;20.36;92.57;100224.05;1463442;89;21537;-85
2023/06/26 05:35:22;;;;;;;19.50;7.80;;;;;;;20.47;91.61;100224.70;1456888;89;21449;-85
2023/06/26 05:37:50;;;;;;;9.55;6.90;;;;;;;20.56;90.92;100224.77;1460055;89;21456;-84
2023/06/26 05:40:18;;;;;;;11.15;8.08;;;;;;;20.65;89.07;100223.45;1459546;88;21619;-86
2023/06/26 05:42:46;;;;;;;13.62;8.05;;;;;;;20.73;89.15;100224.52;1458032;88;22262;-88
2023/06/26 05:45:12;;;;;;;8.50;7.30;;;;;;;20.83;90.30;100222.70;1461991;89;22447;-85
2023/06/26 05:47:38;;;;;;;8.40;7.42;;;;;;;20.91;88.42;100228.31;1461288;89;21676;-87
2023/06/26 05:50:07;;;;;;;12.20;8.28;;;;;;;20.92;87.40;100227.28;1463619;89;21470;-85
2023/06/26 05:52:34;;;;;;;10.18;7.53;;;;;;;21.00;88.70;100224.29;1469357;88;21449;-86
2023/06/26 05:55:01;;;;;;;8.10;7.20;;;;;;;21.16;89.48;100225.61;1457474;88;21478;-87
2023/06/26 05:57:29;;;;;;;14.18;8.60;;;;;;;21.17;86.47;100229.41;1463558;89;22417;-88
2023/06/26 05:59:56;;;;;;;9.70;7.03;;;;;;;21.25;87.58;100222.27;1467102;88;21633;-86
2023/06/26 06:02:23;;;;;;;12.68;7.67;;;;;;;21.30;85.89;100222.27;1458518;89;21666;-88
2023/06/26 06:04:49;;;;;;;16.55;7.30;;;;;;;21.32;85.46;100222.84;1456607;89;22313;-84
2023/06/26 06:07:15;;;;;;;11.20;7.10;;;;;;;21.41;84.82;100229.63;1457415;89;21486;-85
2023/06/26 06:09:41;;;;;;;18.10;10.13;;;;;;;21.49;85.31;100226.65;1458208;89;21639;-87
2023/06/26 06:12:08;;;;;;;15.48;8.28;;;;;;;21.61;84.89;100231.58;1453719;89;22313;-86
2023/06/26 06:14:35;;;;;;;10.75;7.00;;;;;;;21.61;84.89;100231.58;1451397;89;21500;-87
2023/06/26 06:17:02;;;;;;;8.08;7.08;;;;;;;21.65;82.55;100228.44;1463531;88;21774;-86
2023/06/26 06:19:28;;;;;;;11.20;7.75;;;;;;;21.75;82.49;100228.21;1456949;88;22344;-84
2023/06/26 06:21:54;;;;;;;12.25;8.15;;;;;;;21.88;84.52;100228.55;1466663;88;21462;-85
2023/06/26 06:24:21;;;;;;;10.28;7.33;;;;;;;21.97;83.42;100220.45;1447261;89;21389;-87
2023/06/26 06:26:47;;;;;;;8.13;7.03;;;;;;;22.12;83.98;100224.61;1459811;89;21440;-85
2023/06/26 06:29:13;;;;;;;9.15;7.85;;;;;;;22.22;80.68;100223.05;1449483;89;22387;-87
2023/06/26 06:31:39;;;;;;;10.58;7.08;;;;;;;22.33;81.98;100221.45;1462873;89;22550;-86
2023/06/26 06:34:05;;;;;;;12.90;6.75;;;;;;;22.42;81.80;100215.20;1455343;89;21486;-86
2023/06/26 06:36:31;;;;;;;8.83;7.07;;;;;;;22.44;79.77;100208.53;1460783;89;21663;-85
2023/06/26 06:38:58;;;;;;;10.18;6.53;;;;;;;22.44;78.17;100215.28;1446212;89;21486;-83
2023/06/26 06:41:24;;;;;;;11.45;7.28;;;;;;;22.49;79.64;100218.08;1458827;88;21464;-85
2023/06/26 06:43:50;;;;;;;9.53;6.72;;;;;;;22.51;78.65;100221.38;1450956;89;21685;-84
2023/06/26 06:46:17;;;;;;;8.05;6.42;;;;;;;22.62;79.86;100224.34;1460683;89;21949;-85
2023/06/26 06:48:43;;;;;;;9.68;7.65;;;;;;;22.68;78.27;100226.92;1452711;89;21463;-86
2023/06/26 06:51:09;;;;;;;7.47;6.60;;;;;;;22.61;77.20;100222.14;1453405;89;21674;-87
2023/06/26 06:53:35;;;;;;;11.15;7.08;;;;;;;22.61;77.76;100222.67;1451288;89;21396;-85
2023/06/26 06:56:02;;;;;;;11.08;7.35;;;;;;;22.66;79.33;100227.67;1455972;89;21618;-86
2023/06/26 06:58:28;;;;;;;7.60;6.80;;;;;;;22.71;78.94;100217.55;1460689;89;21471;-85
2023/06/26 07:00:55;;;;;;;11.35;8.48;;;;;;;22.77;78.42;100215.27;1453937;89;21608;-84
2023/06/26 07:03:22;;;;;;;9.28;7.28;;;;;;;22.90;79.70;100216.41;1454216;89;21678;-85
2023/06/26 07:05:48;;;;;;;9.85;7.20;;;;;;;22.88;77.47;100221.20;1452893;89;22351;-86
2023/06/26 07:08:14;;;;;;;11.97;7.03;;;;;;;22.81;78.43;100212.38;1437746;89;21611;-85
2023/06/26 07:10:40;;;;;;;16.50;7.08;;;;;;;22.92;78.69;100216.97;1456266;89;21507;-87
2023/06/26 07:13:07;;;;;;;8.90;7.33;;;;;;;23.09;79.67;100216.30;1459194;89;21508;-86
2023/06/26 07:15:33;;;;;;;12.88;7.35;;;;;;;23.21;79.16;100222.52;1457072;89;21507;-87
2023/06/26 07:21:59;;;;;;;12.60;6.70;;;;;;;23.45;78.80;100227.37;1459117;89;21583;-87
2023/06/26 07:24:25;;;;;;;10.82;7.47;;;;;;;23.80;78.96;100230.02;1455259;89;21419;-88
2023/06/26 07:26:51;;;;;;;10.78;6.35;;;;;;;24.00;75.72;100222.03;1457288;88;21397;-87
2023/06/26 07:29:18;;;;;;;9.30;6.50;;;;;;;24.08;75.93;100218.41;1445016;89;23065;-86
2023/06/26 07:31:45;;;;;;;9.20;6.62;;;;;;;24.17;73.78;100225.60;1457334;89;21574;-87
2023/06/26 07:34:11;;;;;;;8.25;6.15;;;;;;;24.26;73.92;100224.67;1451850;89;21538;-85
2023/06/26 07:36:37;;;;;;;14.68;5.67;;;;;;;24.26;73.10;100224.14;1450987;90;21586;-88
2023/06/26 07:39:03;;;;;;;8.78;6.72;;;;;;;24.31;73.64;100224.23;1453440;90;21523;-90
2023/06/26 07:41:31;;;;;;;11.90;6.12;;;;;;;24.40;73.10;100223.81;1451054;90;21486;-86
2023/06/26 07:43:59;;;;;;;11.18;7.47;;;;;;;24.43;71.00;100230.16;1454896;90;22687;-85
2023/06/26 07:46:25;;;;;;;8.65;6.15;;;;;;;24.48;71.81;100222.10;1451905;89;21464;-86
2023/06/26 07:48:51;;;;;;;10.95;7.00;;;;;;;24.59;70.99;100219.86;1455474;90;22208;-86
2023/06/26 07:51:17;;;;;;;8.05;5.05;;;;;;;24.66;72.11;100223.78;1452367;90;21412;-87
2023/06/26 07:53:44;;;;;;;8.65;6.20;;;;;;;24.81;72.02;100224.55;1454303;89;21486;-89
2023/06/26 07:56:10;;;;;;;8.20;6.15;;;;;;;24.94;71.10;100221.49;1453935;90;21457;-89
2023/06/26 07:58:36;;;;;;;8.10;6.03;;;;;;;25.15;71.58;100219.96;1453663;89;21442;-89
2023/06/26 08:01:03;;;;;;;15.15;6.22;;;;;;;25.24;70.85;100221.70;1451525;90;22930;-89
2023/06/26 08:03:29;;;;;;;10.58;6.40;;;;;;;25.14;68.95;100223.17;1445305;90;21577;-89
2023/06/26 08:05:55;;;;;;;16.10;6.03;;;;;;;25.17;71.00;100224.57;1453825;90;21626;-89
2023/06/26 08:08:21;;;;;;;9.85;5.67;;;;;;;25.30;71.97;100220.17;1455907;90;21730;-85
2023/06/26 08:10:47;;;;;;;6.03;5.42;;;;;;;25.39;68.21;100215.95;1450991;90;21552;-87
2023/06/26 08:13:13;;;;;;;11.03;5.47;;;;;;;25.43;69.50;100215.75;1446976;90;21663;-85
2023/06/26 08:15:40;;;;;;;9.10;5.67;;;;;;;25.54;70.30;100219.39;1453137;89;21390;-86
2023/06/26 08:18:06;;;;;;;11.60;5.70;;;;;;;25.58;69.64;100224.61;1450779;89;21435;-85
2023/06/26 08:20:32;;;;;;;8.45;5.20;;;;;;;25.64;68.51;100220.88;1449848;89;21585;-87
2023/06/26 08:22:58;;;;;;;9.38;5.87;;;;;;;25.71;67.22;100228.00;1451264;90;21493;-89
2023/06/26 08:25:25;;;;;;;9.30;5.53;;;;;;;25.77;69.60;100223.73;1451986;89;21405;-90
2023/06/26 08:27:52;;;;;;;6.47;5.55;;;;;;;25.85;67.40;100227.39;1446388;90;21493;-89
2023/06/26 08:30:18;;;;;;;6.50;5.83;;;;;;;25.85;67.62;100229.28;1449774;89;22402;-89
2023/06/26 08:32:44;;;;;;;6.17;5.58;;;;;;;25.97;69.10;100226.44;1450255;90;21586;-85
2023/06/26 08:35:12;;;;;;;8.68;5.10;;;;;;;26.07;68.84;100224.66;1464059;89;21522;-88
2023/06/26 08:37:47;;;;;;;10.48;5.72;;;;;;;26.17;67.87;100228.55;1411578;89;22534;-89
2023/06/26 08:40:18;;;;;;;8.80;5.20;;;;;;;26.28;67.77;100228.94;1532578;89;21346;-86
2023/06/26 08:42:45;;;;;;;6.95;5.28;;;;;;;26.43;66.50;100230.42;1545769;89;21346;-89
2023/06/26 08:45:12;;;;;;;7.50;5.20;;;;;;;26.46;65.91;100227.20;1393820;89;21397;-89
2023/06/26 08:47:39;;;;;;;10.40;5.75;;;;;;;26.47;66.08;100222.58;1387684;89;21420;-87
2023/06/26 08:50:12;;;;;;;6.53;5.40;;;;;;;26.46;65.69;100220.95;1439614;89;21508;-83
2023/06/26 08:53:28;;;;;;;12.68;5.55;;;;;;;26.34;63.58;100222.48;1453598;88;21551;-87
2023/06/26 08:56:10;;;;;;;6.30;5.15;;;;;;;26.43;65.88;100221.47;1387186;89;21427;-85
2023/06/26 08:58:37;;;;;;;10.85;5.65;;;;;;;26.50;64.88;100219.41;1386957;88;21397;-85
2023/06/26 09:01:05;;;;;;;8.60;5.47;;;;;;;26.57;64.84;100223.26;1402246;89;21610;-90
2023/06/26 09:03:32;;;;;;;6.72;5.20;;;;;;;26.65;63.84;100224.15;1461155;89;22343;-87
2023/06/26 09:05:59;;;;;;;8.13;5.75;;;;;;;26.69;64.38;100215.75;1386980;88;21323;-87
2023/06/26 09:08:27;;;;;;;9.88;4.17;;;;;;;26.80;64.02;100224.80;1393655;88;21582;-88
2023/06/26 09:10:54;;;;;;;7.10;5.12;;;;;;;26.78;60.34;100215.55;1401806;89;21478;-88
2023/06/26 09:13:20;;;;;;;7.08;5.42;;;;;;;26.89;62.14;100215.91;1387683;88;21375;-89
2023/06/26 09:15:46;;;;;;;5.87;5.03;;;;;;;27.05;61.97;100214.67;1393761;89;21368;-87
2023/06/26 09:18:15;;;;;;;7.35;4.78;;;;;;;27.11;59.59;100218.50;1383613;88;22374;-88
2023/06/26 09:20:41;;;;;;;9.75;5.25;;;;;;;27.06;57.52;100210.86;1384787;88;22291;-87
2023/06/26 09:23:08;;;;;;;6.33;4.90;;;;;;;27.01;59.88;100211.09;1387984;88;21367;-88
2023/06/26 09:25:36;;;;;;;4.95;3.92;;;;;;;27.12;58.20;100209.81;1392064;89;21419;-90
2023/06/26 09:28:02;;;;;;;4.72;4.33;;;;;;;27.25;59.36;100216.17;1451416;89;21581;-87
2023/06/26 09:30:30;;;;;;;6.78;4.95;;;;;;;27.03;57.97;100211.39;1460364;89;21662;-89
2023/06/26 09:32:57;;;;;;;7.58;4.78;;;;;;;26.60;56.96;100219.48;1463049;89;21500;-86
2023/06/26 09:35:25;;;;;;;5.80;4.37;;;;;;;26.67;59.33;100211.95;1446730;89;22353;-89
2023/06/26 09:37:52;;;;;;;7.58;5.30;;;;;;;26.84;58.80;100211.78;1459835;88;21478;-88
2023/06/26 09:40:18;;;;;;;8.20;5.15;;;;;;;26.90;57.49;100210.77;1444740;89;22070;-90
2023/06/26 09:42:45;;;;;;;7.10;4.85;;;;;;;27.08;57.93;100214.14;1463714;89;21641;-90
2023/06/26 09:45:18;;;;;;;8.25;4.53;;;;;;;27.28;58.45;100211.58;1459200;89;21486;-88
2023/06/26 09:47:44;;;;;;;5.85;4.55;;;;;;;27.52;58.29;100219.30;1462810;89;22019;-89
2023/06/26 09:50:23;;;;;;;5.37;4.33;;;;;;;27.74;58.55;100221.29;1458552;88;21522;-89
2023/06/26 09:52:52;;;;;;;8.33;4.05;;;;;;;27.82;56.46;100218.09;1460052;88;22312;-88
2023/06/26 09:55:21;;;;;;;6.65;4.20;;;;;;;28.01;56.65;100218.95;1458845;88;21522;-88
2023/06/26 09:57:50;;;;;;;5.20;3.72;;;;;;;28.20;56.64;100228.80;1456174;89;21632;-86
2023/06/26 10:00:17;;;;;;;6.78;4.78;;;;;;;28.30;48.75;100224.16;1452415;89;21926;-87
2023/06/26 10:02:44;;;;;;;5.30;4.00;;;;;;;28.46;48.23;100218.23;1459460;88;21500;-86
2023/06/26 10:05:12;;;;;;;5.00;4.50;;;;;;;28.61;43.56;100211.97;1458231;88;21478;-85
2023/06/26 10:07:39;;;;;;;10.60;5.03;;;;;;;28.67;43.45;100219.05;1460330;88;22258;-84
2023/06/26 10:10:12;;;;;;;5.75;4.70;;;;;;;28.76;43.23;100215.23;1384620;89;21412;-86
2023/06/26 10:12:38;;;;;;;5.80;4.58;;;;;;;28.66;43.81;100209.26;1373081;90;21412;-88
2023/06/26 10:15:06;;;;;;;7.12;4.60;;;;;;;28.51;40.92;100214.16;1386085;89;22226;-90
2023/06/26 10:17:38;;;;;;;7.40;4.80;;;;;;;28.51;42.77;100220.13;1415786;88;22410;-89
2023/06/26 10:20:06;;;;;;;5.37;4.53;;;;;;;28.59;42.04;100208.70;1459344;89;22284;-93
2023/06/26 10:22:44;;;;;;;5.00;4.22;;;;;;;28.73;41.11;100212.51;1444188;89;21603;-88
2023/06/26 10:25:19;;;;;;;7.65;4.70;;;;;;;28.75;41.26;100210.33;1383993;89;21464;-92
2023/06/26 10:27:51;;;;;;;5.05;3.60;;;;;;;28.81;42.54;100216.59;1414409;88;21361;-91
2023/06/26 10:30:22;;;;;;;12.68;4.20;;;;;;;28.93;41.64;100198.60;1448955;89;21397;-92
2023/06/26 10:32:51;;;;;;;6.33;5.00;;;;;;;29.13;42.66;100204.03;1381521;90;21361;-89
2023/06/26 10:35:18;;;;;;;5.10;4.58;;;;;;;29.25;40.63;100199.64;1390557;88;21508;-92
2023/06/26 10:42:30;;;;;;;7.00;4.77;;;;;;;28.83;42.02;100200.80;1546215;89;22240;-93
2023/06/26 10:45:00;;;;;;;5.42;4.75;;;;;;;28.32;42.87;100202.95;1544678;88;22448;-92
2023/06/26 10:47:32;;;;;;;7.05;4.12;;;;;;;28.48;41.86;100201.62;1527701;89;21397;-93
2023/06/26 10:50:20;;;;;;;6.80;4.80;;;;;;;28.67;41.98;100201.35;1462787;90;22262;-92
2023/06/26 10:56:51;;;;;;;7.65;4.55;;;;;;;28.51;42.37;100196.47;1464507;89;21500;-93
2023/06/26 10:59:21;;;;;;;6.95;4.60;;;;;;;28.62;41.85;100199.17;1459907;88;21470;-94
2023/06/26 11:02:05;;;;;;;6.28;4.80;;;;;;;28.61;41.43;100191.55;1464536;89;22527;-92
2023/06/26 11:04:47;;;;;;;5.67;4.37;;;;;;;28.84;42.52;100186.64;1465050;88;21514;-91
2023/06/26 11:07:21;;;;;;;4.97;4.47;;;;;;;28.99;41.67;100186.05;1467547;88;23009;-92
2023/06/26 11:10:02;;;;;;;9.05;4.25;;;;;;;29.03;41.02;100189.06;1459684;89;21640;-94
2023/06/26 11:12:44;;;;;;;4.53;3.90;;;;;;;28.67;41.34;100191.02;1463447;88;21522;-94
2023/06/26 11:15:14;;;;;;;9.93;4.35;;;;;;;28.23;41.98;100191.52;1472991;89;21590;-90
2023/06/26 11:17:42;;;;;;;9.73;4.83;;;;;;;28.20;42.83;100190.16;1464648;89;21486;-93
2023/06/26 11:20:11;;;;;;;7.87;4.22;;;;;;;28.40;42.21;100184.44;1462048;88;21505;-92
2023/06/26 11:22:40;;;;;;;5.30;4.20;;;;;;;28.63;42.09;100180.38;1465865;89;21388;-91
2023/06/26 11:25:08;;;;;;;8.28;4.15;;;;;;;28.86;41.42;100177.62;1462208;88;21601;-91
2023/06/26 11:27:42;;;;;;;8.50;5.08;;;;;;;29.11;40.76;100177.60;1462727;89;21419;-92
2023/06/26 11:30:12;;;;;;;8.85;4.55;;;;;;;29.37;40.03;100178.88;1460919;88;21694;-93
2023/06/26 11:32:39;;;;;;;5.85;4.25;;;;;;;29.60;38.75;100179.59;1458556;89;22343;-94
2023/06/26 11:35:09;;;;;;;4.58;4.12;;;;;;;29.56;38.56;100179.09;1458504;88;21486;-93
2023/06/26 11:37:36;;;;;;;13.38;3.83;;;;;;;29.52;38.38;100176.64;1459358;90;21546;-91
2023/06/26 11:40:20;;;;;;;10.05;4.20;;;;;;;29.69;39.40;100182.58;1450837;90;22410;-94